createdAt,value
2018-09-22T00:00:10.645Z,11.70
2018-09-22T00:03:21.866Z,11.60
2018-09-22T00:06:33.721Z,11.60
2018-09-22T00:09:45.897Z,11.70
2018-09-22T00:12:57.431Z,11.50
2018-09-22T00:16:09.210Z,11.50
2018-09-22T00:19:20.346Z,11.40
2018-09-22T00:22:32.205Z,11.60
2018-09-22T00:25:43.719Z,11.60
2018-09-22T00:28:55.381Z,11.50
2018-09-22T00:32:07.187Z,11.50
2018-09-22T00:35:19.236Z,11.40
2018-09-22T00:38:30.667Z,11.40
2018-09-22T00:41:42.522Z,11.40
2018-09-22T00:44:54.180Z,11.30
2018-09-22T00:48:06.079Z,11.40
2018-09-22T00:51:18.079Z,11.40
2018-09-22T00:54:29.814Z,11.40
2018-09-22T00:57:41.602Z,11.40
2018-09-22T01:00:53.359Z,11.30
2018-09-22T01:04:05.329Z,11.30
2018-09-22T01:07:17.362Z,11.30
2018-09-22T01:10:29.762Z,11.40
2018-09-22T01:13:40.845Z,11.20
2018-09-22T01:16:52.782Z,11.10
2018-09-22T01:20:04.826Z,11.20
2018-09-22T01:23:16.302Z,11.30
2018-09-22T01:26:28.193Z,11.10
2018-09-22T01:29:40.006Z,11.30
2018-09-22T01:32:51.843Z,11.30
2018-09-22T01:36:03.830Z,11.10
2018-09-22T01:39:15.426Z,11.20
2018-09-22T01:42:30.087Z,11.20
2018-09-22T01:45:41.983Z,11.10
2018-09-22T01:48:53.555Z,11.10
2018-09-22T01:52:05.485Z,11.00
2018-09-22T01:55:17.035Z,11.00
2018-09-22T01:58:28.987Z,11.00
2018-09-22T02:01:40.775Z,11.00
2018-09-22T02:04:52.630Z,10.90
2018-09-22T02:08:04.492Z,11.00
2018-09-22T02:11:16.852Z,10.90
2018-09-22T02:14:28.412Z,10.90
2018-09-22T02:17:40.648Z,10.90
2018-09-22T02:20:52.105Z,10.80
2018-09-22T02:24:03.131Z,10.80
2018-09-22T02:27:15.004Z,10.90
2018-09-22T02:30:26.880Z,10.80
2018-09-22T02:33:38.521Z,10.80
2018-09-22T02:36:50.634Z,10.70
2018-09-22T02:40:02.320Z,10.60
2018-09-22T02:43:14.301Z,10.70
2018-09-22T02:46:25.947Z,10.70
2018-09-22T02:49:44.143Z,10.70
2018-09-22T02:52:55.485Z,10.60
2018-09-22T02:56:07.717Z,10.60
2018-09-22T02:59:19.496Z,10.50
2018-09-22T03:02:31.435Z,10.60
2018-09-22T03:05:43.066Z,10.70
2018-09-22T03:08:55.165Z,10.50
2018-09-22T03:12:07.237Z,10.40
2018-09-22T03:15:19.084Z,10.50
2018-09-22T03:18:30.517Z,10.50
2018-09-22T03:21:41.691Z,10.40
2018-09-22T03:25:00.187Z,10.40
2018-09-22T03:28:11.605Z,10.40
2018-09-22T03:31:23.398Z,10.30
2018-09-22T03:34:35.292Z,10.20
2018-09-22T03:37:47.019Z,10.40
2018-09-22T03:40:58.970Z,10.20
2018-09-22T03:44:11.716Z,10.20
2018-09-22T03:47:22.874Z,10.40
2018-09-22T03:50:34.552Z,10.30
2018-09-22T03:53:46.322Z,10.30
2018-09-22T03:56:58.179Z,10.20
2018-09-22T04:00:10.290Z,10.40
2018-09-22T04:03:21.929Z,10.30
2018-09-22T04:06:33.132Z,10.10
2018-09-22T04:09:44.723Z,10.30
2018-09-22T04:12:56.986Z,10.20
2018-09-22T04:16:08.750Z,10.30
2018-09-22T04:19:20.486Z,10.40
2018-09-22T04:22:32.130Z,10.20
2018-09-22T04:25:44.001Z,10.10
2018-09-22T04:28:55.596Z,10.20
2018-09-22T04:32:06.806Z,10.20
2018-09-22T04:35:18.655Z,10.30
2018-09-22T04:38:30.541Z,10.20
2018-09-22T04:41:44.022Z,10.10
2018-09-22T04:44:55.134Z,10.20
2018-09-22T04:48:06.919Z,10.10
2018-09-22T04:51:18.786Z,10.20
2018-09-22T04:54:30.694Z,10.00
2018-09-22T04:57:42.500Z,10.00
2018-09-22T05:00:54.344Z,10.00
2018-09-22T05:04:06.279Z,10.00
2018-09-22T05:07:17.953Z,10.10
2018-09-22T05:10:29.926Z,10.00
2018-09-22T05:13:42.027Z,10.10
2018-09-22T05:16:53.829Z,10.10
2018-09-22T05:20:05.748Z,10.10
2018-09-22T05:23:17.395Z,10.10
2018-09-22T05:26:29.225Z,10.20
2018-09-22T05:29:41.230Z,10.10
2018-09-22T05:32:52.249Z,9.90
2018-09-22T05:36:04.667Z,10.00
2018-09-22T05:39:15.970Z,11.90
2018-09-22T05:42:27.941Z,13.70
2018-09-22T05:45:39.845Z,12.20
2018-09-22T05:48:51.658Z,11.40
2018-09-22T05:52:03.495Z,10.80
2018-09-22T05:55:15.278Z,10.50
2018-09-22T05:58:27.191Z,10.60
2018-09-22T06:01:38.951Z,10.50
2018-09-22T06:04:50.594Z,10.30
2018-09-22T06:08:02.883Z,10.40
2018-09-22T06:11:14.491Z,10.50
2018-09-22T06:14:26.999Z,10.60
2018-09-22T06:17:38.250Z,10.60
2018-09-22T06:20:50.049Z,10.80
2018-09-22T06:24:01.948Z,10.90
2018-09-22T06:27:13.645Z,10.90
2018-09-22T06:30:25.231Z,10.90
2018-09-22T06:33:36.900Z,10.90
2018-09-22T06:36:48.571Z,10.90
2018-09-22T06:40:00.489Z,11.00
2018-09-22T06:43:12.396Z,11.10
2018-09-22T06:46:24.183Z,11.10
2018-09-22T06:49:37.629Z,11.00
2018-09-22T06:52:49.298Z,11.10
2018-09-22T06:56:01.145Z,11.00
2018-09-22T06:59:13.134Z,11.10
2018-09-22T07:02:25.063Z,11.30
2018-09-22T07:05:37.139Z,11.40
2018-09-22T07:08:48.678Z,11.50
2018-09-22T07:11:59.749Z,11.50
2018-09-22T07:15:12.147Z,11.50
2018-09-22T07:18:23.450Z,11.60
2018-09-22T07:21:40.287Z,11.70
2018-09-22T07:24:51.780Z,11.80
2018-09-22T07:28:03.362Z,11.90
2018-09-22T07:31:15.324Z,12.10
2018-09-22T07:34:27.129Z,12.30
2018-09-22T07:37:38.705Z,12.40
2018-09-22T07:40:50.228Z,12.40
2018-09-22T07:44:02.206Z,12.50
2018-09-22T07:47:14.128Z,12.60
2018-09-22T07:50:26.347Z,12.70
2018-09-22T07:53:37.796Z,12.70
2018-09-22T07:56:49.244Z,12.60
2018-09-22T08:00:01.345Z,12.80
2018-09-22T08:03:12.868Z,12.90
2018-09-22T08:06:24.775Z,13.10
2018-09-22T08:09:36.619Z,12.90
2018-09-22T08:12:48.378Z,13.00
2018-09-22T08:16:00.738Z,13.30
2018-09-22T08:19:12.017Z,13.20
2018-09-22T08:22:23.959Z,13.10
2018-09-22T08:25:41.647Z,13.10
2018-09-22T08:28:53.544Z,13.00
2018-09-22T08:32:05.429Z,13.20
2018-09-22T08:35:17.308Z,13.40
2018-09-22T08:38:28.951Z,13.40
2018-09-22T08:41:40.904Z,13.50
2018-09-22T08:44:52.348Z,13.50
2018-09-22T08:48:03.997Z,13.60
2018-09-22T08:51:15.961Z,13.80
2018-09-22T08:54:27.984Z,13.80
2018-09-22T08:57:39.670Z,13.70
2018-09-22T09:00:51.456Z,13.60
2018-09-22T09:04:03.086Z,13.40
2018-09-22T09:07:14.997Z,13.40
2018-09-22T09:10:26.406Z,13.40
2018-09-22T09:13:38.681Z,13.60
2018-09-22T09:16:50.644Z,13.60
2018-09-22T09:20:02.197Z,13.70
2018-09-22T09:23:13.900Z,13.70
2018-09-22T09:26:25.836Z,13.90
2018-09-22T09:29:37.515Z,14.10
2018-09-22T09:32:49.453Z,14.20
2018-09-22T09:36:01.269Z,14.30
2018-09-22T09:39:13.179Z,14.20
2018-09-22T09:42:24.487Z,14.10
2018-09-22T09:45:36.003Z,14.10
2018-09-22T09:48:47.727Z,14.20
2018-09-22T09:51:59.708Z,14.20
2018-09-22T09:55:11.609Z,14.10
2018-09-22T09:58:23.572Z,14.20
2018-09-22T10:01:35.130Z,14.30
2018-09-22T10:04:46.741Z,14.40
2018-09-22T10:07:58.573Z,14.50
2018-09-22T10:11:10.460Z,14.40
2018-09-22T10:14:22.403Z,14.60
2018-09-22T10:17:34.727Z,14.50
2018-09-22T10:20:45.934Z,14.50
2018-09-22T10:23:58.059Z,14.50
2018-09-22T10:27:10.114Z,14.70
2018-09-22T10:30:22.132Z,14.70
2018-09-22T10:33:33.864Z,14.90
2018-09-22T10:36:45.557Z,15.10
2018-09-22T10:39:57.239Z,15.00
2018-09-22T10:43:09.433Z,14.90
2018-09-22T10:46:20.940Z,15.00
2018-09-22T10:49:32.736Z,14.90
2018-09-22T10:52:44.409Z,14.90
2018-09-22T10:55:56.145Z,15.00
2018-09-22T10:59:08.703Z,15.00
2018-09-22T11:02:21.010Z,15.10
2018-09-22T11:05:32.604Z,15.10
2018-09-22T11:08:44.514Z,15.10
2018-09-22T11:11:56.235Z,15.30
2018-09-22T11:15:08.722Z,15.30
2018-09-22T11:18:20.441Z,15.50
2018-09-22T11:21:32.189Z,15.40
2018-09-22T11:24:43.616Z,15.50
2018-09-22T11:27:55.678Z,15.40
2018-09-22T11:31:08.443Z,15.50
2018-09-22T11:34:20.319Z,15.40
2018-09-22T11:37:32.154Z,15.40
2018-09-22T11:40:43.363Z,15.40
2018-09-22T11:43:55.152Z,15.40
2018-09-22T11:47:07.783Z,15.50
2018-09-22T11:50:19.082Z,15.40
2018-09-22T11:53:30.879Z,15.40
2018-09-22T11:56:42.798Z,15.50
2018-09-22T11:59:54.417Z,15.60
2018-09-22T12:03:06.418Z,15.50
2018-09-22T12:06:18.655Z,15.40
2018-09-22T12:09:30.013Z,15.60
2018-09-22T12:12:41.836Z,15.50
2018-09-22T12:15:53.690Z,15.70
2018-09-22T12:19:06.593Z,15.60
2018-09-22T12:22:18.804Z,15.60
2018-09-22T12:25:30.969Z,15.70
2018-09-22T12:28:44.131Z,15.70
2018-09-22T12:31:55.749Z,15.80
2018-09-22T12:35:07.418Z,15.60
2018-09-22T12:38:20.930Z,15.60
2018-09-22T12:41:34.363Z,15.80
2018-09-22T12:44:46.733Z,15.90
2018-09-22T12:47:58.243Z,16.00
2018-09-22T12:51:09.809Z,15.90
2018-09-22T12:54:21.808Z,15.90
2018-09-22T12:57:33.586Z,16.10
2018-09-22T13:00:45.385Z,16.30
2018-09-22T13:03:57.144Z,16.80
2018-09-22T13:07:09.380Z,16.90
2018-09-22T13:10:22.179Z,16.40
2018-09-22T13:13:33.839Z,16.60
2018-09-22T13:16:45.977Z,16.70
2018-09-22T13:19:57.825Z,16.70
2018-09-22T13:23:09.445Z,16.90
2018-09-22T13:26:21.654Z,16.60
2018-09-22T13:29:34.637Z,16.70
2018-09-22T13:32:46.645Z,16.70
2018-09-22T13:35:58.161Z,16.50
2018-09-22T13:39:12.691Z,16.60
2018-09-22T13:42:24.266Z,16.60
2018-09-22T13:45:36.440Z,16.60
2018-09-22T13:48:48.586Z,16.70
2018-09-22T13:52:07.966Z,16.60
2018-09-22T13:55:19.059Z,16.70
2018-09-22T13:58:30.249Z,16.70
2018-09-22T14:01:42.300Z,16.50
2018-09-22T14:04:54.106Z,16.60
2018-09-22T14:08:06.551Z,16.60
2018-09-22T14:11:19.208Z,16.70
2018-09-22T14:14:31.173Z,16.60
2018-09-22T14:17:43.124Z,16.60
2018-09-22T14:20:55.093Z,16.60
2018-09-22T14:24:06.926Z,16.60
2018-09-22T14:27:18.694Z,16.50
2018-09-22T14:30:30.730Z,16.60
2018-09-22T14:33:42.438Z,16.40
2018-09-22T14:36:53.944Z,16.40
2018-09-22T14:40:06.470Z,16.30
2018-09-22T14:43:18.394Z,16.40
2018-09-22T14:46:30.594Z,16.40
2018-09-22T14:49:42.280Z,16.20
2018-09-22T14:52:53.600Z,16.20
2018-09-22T14:56:05.233Z,16.20
2018-09-22T14:59:17.642Z,16.20
2018-09-22T15:02:28.795Z,16.10
2018-09-22T15:05:42.453Z,16.00
2018-09-22T15:08:54.366Z,16.00
2018-09-22T15:12:06.499Z,15.90
2018-09-22T15:15:18.238Z,15.80
2018-09-22T15:18:30.048Z,15.80
2018-09-22T15:21:42.060Z,15.80
2018-09-22T15:24:53.619Z,15.80
2018-09-22T15:28:05.580Z,15.80
2018-09-22T15:31:17.365Z,15.70
2018-09-22T15:34:29.004Z,15.80
2018-09-22T15:37:40.950Z,15.80
2018-09-22T15:40:53.034Z,15.70
2018-09-22T15:44:04.978Z,15.80
2018-09-22T15:47:17.019Z,15.80
2018-09-22T15:50:28.037Z,15.80
2018-09-22T15:53:39.116Z,15.80
2018-09-22T15:56:50.468Z,15.70
2018-09-22T16:00:02.324Z,15.70
2018-09-22T16:03:14.195Z,15.70
2018-09-22T16:06:25.900Z,15.60
2018-09-22T16:09:38.394Z,15.60
2018-09-22T16:12:49.902Z,15.50
2018-09-22T16:16:01.522Z,15.50
2018-09-22T16:19:13.618Z,15.40
2018-09-22T16:22:26.298Z,15.40
2018-09-22T16:25:38.444Z,15.40
2018-09-22T16:28:50.118Z,15.40
2018-09-22T16:32:02.043Z,15.40
2018-09-22T16:35:14.021Z,15.40
2018-09-22T16:38:26.073Z,15.40
2018-09-22T16:41:37.712Z,15.40
2018-09-22T16:44:49.339Z,15.30
2018-09-22T16:48:01.260Z,15.40
2018-09-22T16:51:13.153Z,15.40
2018-09-22T16:54:34.539Z,15.20
2018-09-22T16:58:02.971Z,15.20
2018-09-22T17:04:57.392Z,15.00
2018-09-22T17:08:08.766Z,14.90
2018-09-22T17:11:20.870Z,14.80
2018-09-22T17:14:32.261Z,14.80
2018-09-22T17:17:43.563Z,14.80
2018-09-22T17:20:56.914Z,14.80
2018-09-22T17:24:10.153Z,14.70
2018-09-22T17:27:22.754Z,14.70
2018-09-22T17:30:36.603Z,14.60
2018-09-22T17:34:03.430Z,14.60
2018-09-22T17:37:16.532Z,14.60
2018-09-22T17:40:30.530Z,14.50
2018-09-22T17:43:43.607Z,14.60
2018-09-22T17:46:56.426Z,14.50
2018-09-22T17:50:09.318Z,14.50
2018-09-22T17:57:04.579Z,14.50
2018-09-22T18:00:33.824Z,14.40
2018-09-22T18:03:46.428Z,14.40
2018-09-22T18:10:42.317Z,14.40
2018-09-22T18:17:39.635Z,14.30
2018-09-22T18:21:14.176Z,14.30
2018-09-22T18:24:35.673Z,14.20
2018-09-22T18:27:54.716Z,14.20
2018-09-22T18:31:08.767Z,14.20
2018-09-22T18:34:21.315Z,14.20
2018-09-22T18:37:34.366Z,14.20
2018-09-22T18:40:47.506Z,14.20
2018-09-22T18:43:59.437Z,14.30
2018-09-22T18:47:11.087Z,14.20
2018-09-22T18:50:23.233Z,14.20
2018-09-22T18:53:34.952Z,14.20
2018-09-22T18:56:50.856Z,14.20
2018-09-22T19:00:05.308Z,14.10
2018-09-22T19:03:16.576Z,14.00
2018-09-22T19:06:28.972Z,14.00
2018-09-22T19:09:40.864Z,14.10
2018-09-22T19:12:53.029Z,14.00
2018-09-22T19:16:10.131Z,13.90
2018-09-22T19:19:26.649Z,14.00
2018-09-22T19:22:43.048Z,13.90
2018-09-22T19:25:58.352Z,13.90
2018-09-22T19:29:19.852Z,13.90
2018-09-22T19:32:37.625Z,14.00
2018-09-22T19:35:55.035Z,14.00
2018-09-22T19:39:17.001Z,14.00
2018-09-22T19:42:36.043Z,14.00
2018-09-22T19:45:51.202Z,13.90
2018-09-22T19:49:07.279Z,13.90
2018-09-22T19:52:22.228Z,13.90
2018-09-22T19:55:33.583Z,13.80
2018-09-22T19:58:46.660Z,13.80
2018-09-22T20:01:59.218Z,13.70
2018-09-22T20:05:10.870Z,13.80
2018-09-22T20:08:23.584Z,13.70
2018-09-22T20:11:35.771Z,13.60
2018-09-22T20:14:47.426Z,13.40
2018-09-22T20:17:59.281Z,13.40
2018-09-22T20:21:10.969Z,13.40
2018-09-22T20:24:22.777Z,13.50
2018-09-22T20:27:34.473Z,13.40
2018-09-22T20:30:47.298Z,13.40
2018-09-22T20:33:59.233Z,13.40
2018-09-22T20:37:10.626Z,13.30
2018-09-22T20:40:22.145Z,13.30
2018-09-22T20:43:34.199Z,13.30
2018-09-22T20:46:45.917Z,13.30
2018-09-22T20:49:57.463Z,13.30
2018-09-22T20:53:09.142Z,13.30
2018-09-22T20:56:20.775Z,13.30
2018-09-22T20:59:32.705Z,13.20
2018-09-22T21:02:44.650Z,13.20
2018-09-22T21:05:56.274Z,13.10
2018-09-22T21:09:09.738Z,13.10
2018-09-22T21:12:21.748Z,13.10
2018-09-22T21:15:33.649Z,13.10
2018-09-22T21:18:45.349Z,13.10
2018-09-22T21:21:57.184Z,13.20
2018-09-22T21:25:08.840Z,13.10
2018-09-22T21:28:20.719Z,13.10
2018-09-22T21:31:33.060Z,13.10
2018-09-22T21:34:45.082Z,13.10
2018-09-22T21:37:56.764Z,13.20
2018-09-22T21:41:08.624Z,13.20
2018-09-22T21:44:20.360Z,13.20
2018-09-22T21:47:32.358Z,13.10
2018-09-22T21:50:43.890Z,13.10
2018-09-22T21:53:55.646Z,13.10
2018-09-22T21:57:07.619Z,13.10
2018-09-22T22:00:19.467Z,13.00
2018-09-22T22:03:31.108Z,13.00
2018-09-22T22:06:42.681Z,13.00
2018-09-22T22:09:54.317Z,13.00
2018-09-22T22:13:06.215Z,13.00
2018-09-22T22:16:17.900Z,12.90
2018-09-22T22:19:29.646Z,12.90
2018-09-22T22:22:41.413Z,12.90
2018-09-22T22:25:53.090Z,12.80
2018-09-22T22:29:05.065Z,12.80
2018-09-22T22:32:16.958Z,12.80
2018-09-22T22:35:28.666Z,12.80
2018-09-22T22:38:40.399Z,12.70
2018-09-22T22:41:51.982Z,12.70
2018-09-22T22:45:03.642Z,12.70
2018-09-22T22:48:15.527Z,12.50
2018-09-22T22:51:27.085Z,12.40
2018-09-22T22:54:38.906Z,12.30
2018-09-22T22:57:50.689Z,12.40
2018-09-22T23:01:02.723Z,12.20
2018-09-22T23:04:14.365Z,12.20
2018-09-22T23:07:26.174Z,12.20
2018-09-22T23:10:38.013Z,12.20
2018-09-22T23:13:49.945Z,12.10
2018-09-22T23:17:01.729Z,12.00
2018-09-22T23:20:13.768Z,12.00
2018-09-22T23:23:26.096Z,12.00
2018-09-22T23:26:37.451Z,12.00
2018-09-22T23:29:50.009Z,12.00
2018-09-22T23:33:01.930Z,11.90
2018-09-22T23:36:14.569Z,11.90
2018-09-22T23:39:26.608Z,12.00
2018-09-22T23:42:38.420Z,12.00
2018-09-22T23:45:50.428Z,12.00
2018-09-22T23:49:02.158Z,12.00
2018-09-22T23:52:13.832Z,12.00
2018-09-22T23:55:25.694Z,11.90
2018-09-22T23:58:37.340Z,11.80
